sensor_id;sensor_type;location;lat;lon;timestamp;temperature;humidity
34572;DHT22;20808;48.974;8.452;2023-01-05T00:00:03;10.90;1.00
34572;DHT22;20808;48.974;8.452;2023-01-05T00:00:19;10.90;1.00
34572;DHT22;20808;48.974;8.452;2023-01-05T00:00:35;10.90;1.00
34572;DHT22;20808;48.974;8.452;2023-01-05T00:00:51;11.00;1.00
34572;DHT22;20808;48.974;8.452;2023-01-05T00:01:08;11.00;1.00
34572;DHT22;20808;48.974;8.452;2023-01-05T00:01:24;11.00;1.00
34572;DHT22;20808;48.974;8.452;2023-01-05T00:01:42;11.00;1.00
34572;DHT22;20808;48.974;8.452;2023-01-05T00:01:58;11.00;1.00
34572;DHT22;20808;48.974;8.452;2023-01-05T00:02:13;11.00;1.00
34572;DHT22;20808;48.974;8.452;2023-01-05T00:02:29;11.00;1.00
34572;DHT22;20808;48.974;8.452;2023-01-05T00:02:46;11.00;1.00
34572;DHT22;20808;48.974;8.452;2023-01-05T00:03:02;11.00;1.00
34572;DHT22;20808;48.974;8.452;2023-01-05T00:03:18;11.00;1.00
34572;DHT22;20808;48.974;8.452;2023-01-05T00:03:34;11.00;1.00
34572;DHT22;20808;48.974;8.452;2023-01-05T00:03:50;11.00;1.00
34572;DHT22;20808;48.974;8.452;2023-01-05T00:04:06;11.00;1.00
34572;DHT22;20808;48.974;8.452;2023-01-05T00:04:24;11.00;1.00
34572;DHT22;20808;48.974;8.452;2023-01-05T00:04:39;11.00;1.00
34572;DHT22;20808;48.974;8.452;2023-01-05T00:04:55;11.00;1.00
34572;DHT22;20808;48.974;8.452;2023-01-05T00:05:11;11.00;1.00
34572;DHT22;20808;48.974;8.452;2023-01-05T00:05:27;11.00;1.00
34572;DHT22;20808;48.974;8.452;2023-01-05T00:05:43;11.00;1.00
34572;DHT22;20808;48.974;8.452;2023-01-05T00:06:00;11.00;1.00
34572;DHT22;20808;48.974;8.452;2023-01-05T00:06:16;11.00;1.00
34572;DHT22;20808;48.974;8.452;2023-01-05T00:06:33;11.00;1.00
34572;DHT22;20808;48.974;8.452;2023-01-05T00:06:49;11.00;1.00
34572;DHT22;20808;48.974;8.452;2023-01-05T00:07:06;11.00;1.00
34572;DHT22;20808;48.974;8.452;2023-01-05T00:07:21;11.00;1.00
34572;DHT22;20808;48.974;8.452;2023-01-05T00:07:37;11.00;1.00
34572;DHT22;20808;48.974;8.452;2023-01-05T00:07:53;11.00;1.00
34572;DHT22;20808;48.974;8.452;2023-01-05T00:08:09;11.00;1.00
34572;DHT22;20808;48.974;8.452;2023-01-05T00:08:25;11.00;1.00
34572;DHT22;20808;48.974;8.452;2023-01-05T00:08:42;11.00;1.00
34572;DHT22;20808;48.974;8.452;2023-01-05T00:08:58;11.00;1.00
34572;DHT22;20808;48.974;8.452;2023-01-05T00:09:16;11.00;1.00
34572;DHT22;20808;48.974;8.452;2023-01-05T00:09:33;11.00;1.00
34572;DHT22;20808;48.974;8.452;2023-01-05T00:09:48;11.00;1.00
34572;DHT22;20808;48.974;8.452;2023-01-05T00:10:05;11.00;1.00
34572;DHT22;20808;48.974;8.452;2023-01-05T00:10:46;11.00;1.00
34572;DHT22;20808;48.974;8.452;2023-01-05T00:11:20;11.00;1.00
34572;DHT22;20808;48.974;8.452;2023-01-05T00:11:54;11.00;1.00
34572;DHT22;20808;48.974;8.452;2023-01-05T00:12:28;11.10;1.00
34572;DHT22;20808;48.974;8.452;2023-01-05T00:13:02;11.00;1.00
34572;DHT22;20808;48.974;8.452;2023-01-05T00:13:37;11.00;1.00
34572;DHT22;20808;48.974;8.452;2023-01-05T00:14:13;11.00;1.00
34572;DHT22;20808;48.974;8.452;2023-01-05T00:14:47;11.00;1.00
34572;DHT22;20808;48.974;8.452;2023-01-05T00:15:22;11.00;1.00
34572;DHT22;20808;48.974;8.452;2023-01-05T00:15:58;11.10;1.00
34572;DHT22;20808;48.974;8.452;2023-01-05T00:16:32;11.00;1.00
34572;DHT22;20808;48.974;8.452;2023-01-05T00:17:08;11.00;1.00
34572;DHT22;20808;48.974;8.452;2023-01-05T00:17:43;11.00;1.00
34572;DHT22;20808;48.974;8.452;2023-01-05T00:18:18;11.00;1.00
34572;DHT22;20808;48.974;8.452;2023-01-05T00:18:52;11.10;1.00
34572;DHT22;20808;48.974;8.452;2023-01-05T00:19:27;11.00;1.00
34572;DHT22;20808;48.974;8.452;2023-01-05T00:20:02;11.00;1.00
34572;DHT22;20808;48.974;8.452;2023-01-05T00:20:37;11.00;1.00
34572;DHT22;20808;48.974;8.452;2023-01-05T00:21:12;11.00;1.00
34572;DHT22;20808;48.974;8.452;2023-01-05T00:21:47;11.00;1.00
34572;DHT22;20808;48.974;8.452;2023-01-05T00:22:25;11.00;1.00
34572;DHT22;20808;48.974;8.452;2023-01-05T00:22:50;11.00;1.00
34572;DHT22;20808;48.974;8.452;2023-01-05T00:23:07;11.10;1.00
34572;DHT22;20808;48.974;8.452;2023-01-05T00:23:23;11.10;1.00
34572;DHT22;20808;48.974;8.452;2023-01-05T00:23:38;11.10;1.00
34572;DHT22;20808;48.974;8.452;2023-01-05T00:23:55;11.10;1.00
34572;DHT22;20808;48.974;8.452;2023-01-05T00:24:11;11.10;1.00
34572;DHT22;20808;48.974;8.452;2023-01-05T00:24:27;11.10;1.00
34572;DHT22;20808;48.974;8.452;2023-01-05T00:24:43;11.10;1.00
34572;DHT22;20808;48.974;8.452;2023-01-05T00:25:02;11.10;1.00
34572;DHT22;20808;48.974;8.452;2023-01-05T00:25:19;11.10;1.00
34572;DHT22;20808;48.974;8.452;2023-01-05T00:25:38;11.10;1.00
34572;DHT22;20808;48.974;8.452;2023-01-05T00:25:54;11.10;1.00
34572;DHT22;20808;48.974;8.452;2023-01-05T00:26:10;11.10;1.00
34572;DHT22;20808;48.974;8.452;2023-01-05T00:26:27;11.10;1.00
34572;DHT22;20808;48.974;8.452;2023-01-05T00:26:43;11.20;1.00
34572;DHT22;20808;48.974;8.452;2023-01-05T00:26:58;11.20;1.00
34572;DHT22;20808;48.974;8.452;2023-01-05T00:27:15;11.20;1.00
34572;DHT22;20808;48.974;8.452;2023-01-05T00:27:31;11.20;1.00
34572;DHT22;20808;48.974;8.452;2023-01-05T00:27:48;11.20;1.00
34572;DHT22;20808;48.974;8.452;2023-01-05T00:28:06;11.20;1.00
34572;DHT22;20808;48.974;8.452;2023-01-05T00:28:22;11.20;1.00
34572;DHT22;20808;48.974;8.452;2023-01-05T00:28:38;11.20;1.00
34572;DHT22;20808;48.974;8.452;2023-01-05T00:28:53;11.20;1.00
34572;DHT22;20808;48.974;8.452;2023-01-05T00:29:09;11.20;1.00
34572;DHT22;20808;48.974;8.452;2023-01-05T00:29:25;11.20;1.00
34572;DHT22;20808;48.974;8.452;2023-01-05T00:29:42;11.20;1.00
34572;DHT22;20808;48.974;8.452;2023-01-05T00:29:58;11.10;1.00
34572;DHT22;20808;48.974;8.452;2023-01-05T00:30:16;11.10;1.00
34572;DHT22;20808;48.974;8.452;2023-01-05T00:30:35;11.10;1.00
34572;DHT22;20808;48.974;8.452;2023-01-05T00:30:53;11.20;1.00
34572;DHT22;20808;48.974;8.452;2023-01-05T00:31:09;11.10;1.00
34572;DHT22;20808;48.974;8.452;2023-01-05T00:31:25;11.10;1.00
34572;DHT22;20808;48.974;8.452;2023-01-05T00:31:41;11.10;1.00
34572;DHT22;20808;48.974;8.452;2023-01-05T00:31:57;11.20;1.00
34572;DHT22;20808;48.974;8.452;2023-01-05T00:32:13;11.10;1.00
34572;DHT22;20808;48.974;8.452;2023-01-05T00:32:30;11.10;1.00
34572;DHT22;20808;48.974;8.452;2023-01-05T00:32:46;11.20;1.00
34572;DHT22;20808;48.974;8.452;2023-01-05T00:33:02;11.20;1.00
34572;DHT22;20808;48.974;8.452;2023-01-05T00:33:18;11.20;1.00
34572;DHT22;20808;48.974;8.452;2023-01-05T00:33:34;11.20;1.00
34572;DHT22;20808;48.974;8.452;2023-01-05T00:33:50;11.20;1.00
34572;DHT22;20808;48.974;8.452;2023-01-05T00:34:06;11.20;1.00
34572;DHT22;20808;48.974;8.452;2023-01-05T00:34:22;11.20;1.00
34572;DHT22;20808;48.974;8.452;2023-01-05T00:34:38;11.20;1.00
34572;DHT22;20808;48.974;8.452;2023-01-05T00:34:54;11.20;1.00
34572;DHT22;20808;48.974;8.452;2023-01-05T00:35:11;11.20;1.00
34572;DHT22;20808;48.974;8.452;2023-01-05T00:35:28;11.20;1.00
34572;DHT22;20808;48.974;8.452;2023-01-05T00:35:44;11.20;1.00
34572;DHT22;20808;48.974;8.452;2023-01-05T00:36:01;11.20;1.00
34572;DHT22;20808;48.974;8.452;2023-01-05T00:36:16;11.20;1.00
34572;DHT22;20808;48.974;8.452;2023-01-05T00:36:32;11.20;1.00
34572;DHT22;20808;48.974;8.452;2023-01-05T00:36:48;11.20;1.00
34572;DHT22;20808;48.974;8.452;2023-01-05T00:37:04;11.20;1.00
34572;DHT22;20808;48.974;8.452;2023-01-05T00:37:20;11.20;1.00
34572;DHT22;20808;48.974;8.452;2023-01-05T00:37:36;11.20;1.00
34572;DHT22;20808;48.974;8.452;2023-01-05T00:37:53;11.20;1.00
34572;DHT22;20808;48.974;8.452;2023-01-05T00:38:09;11.20;1.00
34572;DHT22;20808;48.974;8.452;2023-01-05T00:38:25;11.30;1.00
34572;DHT22;20808;48.974;8.452;2023-01-05T00:38:41;11.30;1.00
34572;DHT22;20808;48.974;8.452;2023-01-05T00:38:57;11.30;1.00
34572;DHT22;20808;48.974;8.452;2023-01-05T00:39:14;11.30;1.00
34572;DHT22;20808;48.974;8.452;2023-01-05T00:39:29;11.30;1.00
34572;DHT22;20808;48.974;8.452;2023-01-05T00:39:45;11.30;1.00
34572;DHT22;20808;48.974;8.452;2023-01-05T00:40:01;11.30;1.00
34572;DHT22;20808;48.974;8.452;2023-01-05T00:40:19;11.30;1.00
34572;DHT22;20808;48.974;8.452;2023-01-05T00:40:36;11.30;1.00
34572;DHT22;20808;48.974;8.452;2023-01-05T00:40:53;11.30;1.00
34572;DHT22;20808;48.974;8.452;2023-01-05T00:41:10;11.20;1.00
34572;DHT22;20808;48.974;8.452;2023-01-05T00:41:27;11.30;1.00
34572;DHT22;20808;48.974;8.452;2023-01-05T00:41:42;11.20;1.00
34572;DHT22;20808;48.974;8.452;2023-01-05T00:41:58;11.20;1.00
34572;DHT22;20808;48.974;8.452;2023-01-05T00:42:14;11.20;1.00
34572;DHT22;20808;48.974;8.452;2023-01-05T00:42:31;11.20;1.00
34572;DHT22;20808;48.974;8.452;2023-01-05T00:42:47;11.30;1.00
34572;DHT22;20808;48.974;8.452;2023-01-05T00:43:03;11.30;1.00
34572;DHT22;20808;48.974;8.452;2023-01-05T00:43:19;11.30;1.00
34572;DHT22;20808;48.974;8.452;2023-01-05T00:43:36;11.30;1.00
34572;DHT22;20808;48.974;8.452;2023-01-05T00:43:51;11.30;1.00
34572;DHT22;20808;48.974;8.452;2023-01-05T00:44:07;11.30;1.00
34572;DHT22;20808;48.974;8.452;2023-01-05T00:44:23;11.30;1.00
34572;DHT22;20808;48.974;8.452;2023-01-05T00:44:39;11.30;1.00
34572;DHT22;20808;48.974;8.452;2023-01-05T00:44:54;11.30;1.00
34572;DHT22;20808;48.974;8.452;2023-01-05T00:45:13;11.30;1.00
34572;DHT22;20808;48.974;8.452;2023-01-05T00:45:29;11.30;1.00
34572;DHT22;20808;48.974;8.452;2023-01-05T00:45:45;11.30;1.00
34572;DHT22;20808;48.974;8.452;2023-01-05T00:46:00;11.30;1.00
34572;DHT22;20808;48.974;8.452;2023-01-05T00:46:17;11.30;1.00
34572;DHT22;20808;48.974;8.452;2023-01-05T00:46:33;11.30;1.00
34572;DHT22;20808;48.974;8.452;2023-01-05T00:46:49;11.30;1.00
34572;DHT22;20808;48.974;8.452;2023-01-05T00:47:04;11.30;1.00
34572;DHT22;20808;48.974;8.452;2023-01-05T00:47:20;11.30;1.00
34572;DHT22;20808;48.974;8.452;2023-01-05T00:47:36;11.30;1.00
34572;DHT22;20808;48.974;8.452;2023-01-05T00:47:53;11.30;1.00
34572;DHT22;20808;48.974;8.452;2023-01-05T00:48:09;11.30;1.00
34572;DHT22;20808;48.974;8.452;2023-01-05T00:48:25;11.30;1.00
34572;DHT22;20808;48.974;8.452;2023-01-05T00:48:41;11.30;1.00
34572;DHT22;20808;48.974;8.452;2023-01-05T00:48:56;11.30;1.00
34572;DHT22;20808;48.974;8.452;2023-01-05T00:49:12;11.30;1.00
34572;DHT22;20808;48.974;8.452;2023-01-05T00:49:29;11.30;1.00
34572;DHT22;20808;48.974;8.452;2023-01-05T00:49:45;11.30;1.00
34572;DHT22;20808;48.974;8.452;2023-01-05T00:50:01;11.30;1.00
34572;DHT22;20808;48.974;8.452;2023-01-05T00:50:18;11.30;1.00
34572;DHT22;20808;48.974;8.452;2023-01-05T00:50:37;11.30;1.00
34572;DHT22;20808;48.974;8.452;2023-01-05T00:50:53;11.30;1.00
34572;DHT22;20808;48.974;8.452;2023-01-05T00:51:08;11.30;1.00
34572;DHT22;20808;48.974;8.452;2023-01-05T00:51:24;11.30;1.00
34572;DHT22;20808;48.974;8.452;2023-01-05T00:51:41;11.30;1.00
34572;DHT22;20808;48.974;8.452;2023-01-05T00:51:57;11.30;1.00
34572;DHT22;20808;48.974;8.452;2023-01-05T00:52:13;11.30;1.00
34572;DHT22;20808;48.974;8.452;2023-01-05T00:52:28;11.30;1.00
34572;DHT22;20808;48.974;8.452;2023-01-05T00:52:44;11.30;1.00
34572;DHT22;20808;48.974;8.452;2023-01-05T00:53:00;11.30;1.00
34572;DHT22;20808;48.974;8.452;2023-01-05T00:53:17;11.30;1.00
34572;DHT22;20808;48.974;8.452;2023-01-05T00:53:33;11.40;1.00
34572;DHT22;20808;48.974;8.452;2023-01-05T00:53:49;11.30;1.00
34572;DHT22;20808;48.974;8.452;2023-01-05T00:54:04;11.30;1.00
34572;DHT22;20808;48.974;8.452;2023-01-05T00:54:21;11.30;1.00
34572;DHT22;20808;48.974;8.452;2023-01-05T00:54:36;11.40;1.00
34572;DHT22;20808;48.974;8.452;2023-01-05T00:54:52;11.30;1.00
34572;DHT22;20808;48.974;8.452;2023-01-05T00:55:09;11.30;1.00
34572;DHT22;20808;48.974;8.452;2023-01-05T00:55:25;11.30;1.00
34572;DHT22;20808;48.974;8.452;2023-01-05T00:55:41;11.30;1.00
34572;DHT22;20808;48.974;8.452;2023-01-05T00:55:57;11.30;1.00
34572;DHT22;20808;48.974;8.452;2023-01-05T00:56:13;11.30;1.00
34572;DHT22;20808;48.974;8.452;2023-01-05T00:56:31;11.30;1.00
34572;DHT22;20808;48.974;8.452;2023-01-05T00:56:46;11.30;1.00
34572;DHT22;20808;48.974;8.452;2023-01-05T00:57:03;11.30;1.00
34572;DHT22;20808;48.974;8.452;2023-01-05T00:57:21;11.30;1.00
34572;DHT22;20808;48.974;8.452;2023-01-05T00:57:37;11.30;1.00
34572;DHT22;20808;48.974;8.452;2023-01-05T00:57:54;11.30;1.00
34572;DHT22;20808;48.974;8.452;2023-01-05T00:58:10;11.30;1.00
34572;DHT22;20808;48.974;8.452;2023-01-05T00:58:26;11.30;1.00
34572;DHT22;20808;48.974;8.452;2023-01-05T00:58:42;11.30;1.00
34572;DHT22;20808;48.974;8.452;2023-01-05T00:58:57;11.30;1.00
34572;DHT22;20808;48.974;8.452;2023-01-05T00:59:13;11.30;1.00
34572;DHT22;20808;48.974;8.452;2023-01-05T00:59:30;11.30;1.00
34572;DHT22;20808;48.974;8.452;2023-01-05T00:59:46;11.30;1.00
34572;DHT22;20808;48.974;8.452;2023-01-05T01:00:02;11.30;1.00
34572;DHT22;20808;48.974;8.452;2023-01-05T01:00:19;11.30;1.00
34572;DHT22;20808;48.974;8.452;2023-01-05T01:00:35;11.30;1.00
34572;DHT22;20808;48.974;8.452;2023-01-05T01:00:51;11.30;1.00
34572;DHT22;20808;48.974;8.452;2023-01-05T01:01:10;11.20;1.00
34572;DHT22;20808;48.974;8.452;2023-01-05T01:01:26;11.20;1.00
34572;DHT22;20808;48.974;8.452;2023-01-05T01:01:44;11.20;1.00
34572;DHT22;20808;48.974;8.452;2023-01-05T01:02:00;11.20;1.00
34572;DHT22;20808;48.974;8.452;2023-01-05T01:02:16;11.20;1.00
34572;DHT22;20808;48.974;8.452;2023-01-05T01:02:32;11.20;1.00
34572;DHT22;20808;48.974;8.452;2023-01-05T01:02:50;11.20;1.00
34572;DHT22;20808;48.974;8.452;2023-01-05T01:03:06;11.20;1.00
34572;DHT22;20808;48.974;8.452;2023-01-05T01:03:23;11.20;1.00
34572;DHT22;20808;48.974;8.452;2023-01-05T01:03:40;11.20;1.00
34572;DHT22;20808;48.974;8.452;2023-01-05T01:03:56;11.20;1.00
34572;DHT22;20808;48.974;8.452;2023-01-05T01:04:12;11.20;1.00
34572;DHT22;20808;48.974;8.452;2023-01-05T01:04:29;11.20;1.00
34572;DHT22;20808;48.974;8.452;2023-01-05T01:04:45;11.20;1.00
34572;DHT22;20808;48.974;8.452;2023-01-05T01:05:03;11.20;1.00
34572;DHT22;20808;48.974;8.452;2023-01-05T01:05:19;11.20;1.00
34572;DHT22;20808;48.974;8.452;2023-01-05T01:05:35;11.20;1.00
34572;DHT22;20808;48.974;8.452;2023-01-05T01:05:55;11.20;1.00
34572;DHT22;20808;48.974;8.452;2023-01-05T01:06:12;11.20;1.00
34572;DHT22;20808;48.974;8.452;2023-01-05T01:06:28;11.30;1.00
34572;DHT22;20808;48.974;8.452;2023-01-05T01:06:44;11.30;1.00
34572;DHT22;20808;48.974;8.452;2023-01-05T01:07:01;11.20;1.00
34572;DHT22;20808;48.974;8.452;2023-01-05T01:07:17;11.20;1.00
34572;DHT22;20808;48.974;8.452;2023-01-05T01:07:33;11.20;1.00
34572;DHT22;20808;48.974;8.452;2023-01-05T01:07:49;11.20;1.00
34572;DHT22;20808;48.974;8.452;2023-01-05T01:08:05;11.20;1.50
34572;DHT22;20808;48.974;8.452;2023-01-05T01:08:21;11.20;12.20
34572;DHT22;20808;48.974;8.452;2023-01-05T01:08:37;11.20;12.20
34572;DHT22;20808;48.974;8.452;2023-01-05T01:08:52;11.20;8.70
34572;DHT22;20808;48.974;8.452;2023-01-05T01:09:08;11.20;17.10
34572;DHT22;20808;48.974;8.452;2023-01-05T01:09:24;11.20;19.50
34572;DHT22;20808;48.974;8.452;2023-01-05T01:09:41;11.20;20.70
34572;DHT22;20808;48.974;8.452;2023-01-05T01:09:57;11.20;21.50
34572;DHT22;20808;48.974;8.452;2023-01-05T01:10:13;11.20;16.70
34572;DHT22;20808;48.974;8.452;2023-01-05T01:10:28;11.20;14.10
34572;DHT22;20808;48.974;8.452;2023-01-05T01:10:45;11.20;25.70
34572;DHT22;20808;48.974;8.452;2023-01-05T01:11:04;11.20;24.30
34572;DHT22;20808;48.974;8.452;2023-01-05T01:11:20;11.20;23.70
34572;DHT22;20808;48.974;8.452;2023-01-05T01:11:38;11.20;24.20
34572;DHT22;20808;48.974;8.452;2023-01-05T01:11:54;11.20;23.20
34572;DHT22;20808;48.974;8.452;2023-01-05T01:12:10;11.20;22.40
34572;DHT22;20808;48.974;8.452;2023-01-05T01:12:26;11.20;22.70
34572;DHT22;20808;48.974;8.452;2023-01-05T01:12:42;11.20;28.60
34572;DHT22;20808;48.974;8.452;2023-01-05T01:12:58;11.20;28.20
34572;DHT22;20808;48.974;8.452;2023-01-05T01:13:14;11.20;28.30
34572;DHT22;20808;48.974;8.452;2023-01-05T01:13:31;11.20;35.90
34572;DHT22;20808;48.974;8.452;2023-01-05T01:13:46;11.20;40.30
34572;DHT22;20808;48.974;8.452;2023-01-05T01:14:04;11.20;24.60
34572;DHT22;20808;48.974;8.452;2023-01-05T01:14:20;11.20;32.20
34572;DHT22;20808;48.974;8.452;2023-01-05T01:14:37;11.20;41.00
34572;DHT22;20808;48.974;8.452;2023-01-05T01:14:54;11.20;46.00
34572;DHT22;20808;48.974;8.452;2023-01-05T01:15:10;11.20;26.20
34572;DHT22;20808;48.974;8.452;2023-01-05T01:15:26;11.20;22.70
34572;DHT22;20808;48.974;8.452;2023-01-05T01:15:42;11.20;22.00
34572;DHT22;20808;48.974;8.452;2023-01-05T01:16:05;11.20;27.00
34572;DHT22;20808;48.974;8.452;2023-01-05T01:16:21;11.20;12.30
34572;DHT22;20808;48.974;8.452;2023-01-05T01:16:38;11.20;16.80
34572;DHT22;20808;48.974;8.452;2023-01-05T01:16:54;11.20;22.10
34572;DHT22;20808;48.974;8.452;2023-01-05T01:17:11;11.20;29.20
34572;DHT22;20808;48.974;8.452;2023-01-05T01:17:30;11.20;55.00
34572;DHT22;20808;48.974;8.452;2023-01-05T01:17:46;11.20;51.20
34572;DHT22;20808;48.974;8.452;2023-01-05T01:18:02;11.20;51.40
34572;DHT22;20808;48.974;8.452;2023-01-05T01:18:18;11.20;66.10
34572;DHT22;20808;48.974;8.452;2023-01-05T01:18:35;11.20;72.30
34572;DHT22;20808;48.974;8.452;2023-01-05T01:18:51;11.20;85.00
34572;DHT22;20808;48.974;8.452;2023-01-05T01:19:06;11.20;90.80
34572;DHT22;20808;48.974;8.452;2023-01-05T01:19:24;11.20;91.60
34572;DHT22;20808;48.974;8.452;2023-01-05T01:19:41;11.20;92.20
34572;DHT22;20808;48.974;8.452;2023-01-05T01:19:57;11.20;90.40
34572;DHT22;20808;48.974;8.452;2023-01-05T01:20:13;11.20;95.90
34572;DHT22;20808;48.974;8.452;2023-01-05T01:20:28;11.20;99.90
34572;DHT22;20808;48.974;8.452;2023-01-05T01:20:44;11.20;99.90
34572;DHT22;20808;48.974;8.452;2023-01-05T01:21:01;11.20;99.90
34572;DHT22;20808;48.974;8.452;2023-01-05T01:21:17;11.20;99.90
34572;DHT22;20808;48.974;8.452;2023-01-05T01:21:33;11.20;99.90
34572;DHT22;20808;48.974;8.452;2023-01-05T01:22:01;11.20;99.90
34572;DHT22;20808;48.974;8.452;2023-01-05T01:22:17;11.20;99.90
34572;DHT22;20808;48.974;8.452;2023-01-05T01:22:33;11.20;99.90
34572;DHT22;20808;48.974;8.452;2023-01-05T01:22:49;11.20;99.90
34572;DHT22;20808;48.974;8.452;2023-01-05T01:23:05;11.20;99.90
34572;DHT22;20808;48.974;8.452;2023-01-05T01:23:20;11.10;99.90
34572;DHT22;20808;48.974;8.452;2023-01-05T01:23:36;11.10;99.90
34572;DHT22;20808;48.974;8.452;2023-01-05T01:23:52;11.10;99.90
34572;DHT22;20808;48.974;8.452;2023-01-05T01:24:14;11.20;99.90
34572;DHT22;20808;48.974;8.452;2023-01-05T01:24:30;11.20;99.90
34572;DHT22;20808;48.974;8.452;2023-01-05T01:24:46;11.20;99.90
34572;DHT22;20808;48.974;8.452;2023-01-05T01:25:02;11.20;99.90
34572;DHT22;20808;48.974;8.452;2023-01-05T01:25:19;11.20;99.90
34572;DHT22;20808;48.974;8.452;2023-01-05T01:25:37;11.20;99.90
34572;DHT22;20808;48.974;8.452;2023-01-05T01:25:53;11.20;99.90
34572;DHT22;20808;48.974;8.452;2023-01-05T01:26:12;11.20;97.00
34572;DHT22;20808;48.974;8.452;2023-01-05T01:26:28;11.20;96.10
34572;DHT22;20808;48.974;8.452;2023-01-05T01:26:46;11.20;99.90
34572;DHT22;20808;48.974;8.452;2023-01-05T01:27:02;11.20;98.80
34572;DHT22;20808;48.974;8.452;2023-01-05T01:27:18;11.20;94.90
34572;DHT22;20808;48.974;8.452;2023-01-05T01:27:34;11.20;87.60
34572;DHT22;20808;48.974;8.452;2023-01-05T01:27:50;11.20;68.20
34572;DHT22;20808;48.974;8.452;2023-01-05T01:28:06;11.20;58.20
34572;DHT22;20808;48.974;8.452;2023-01-05T01:28:22;11.20;38.10
34572;DHT22;20808;48.974;8.452;2023-01-05T01:28:38;11.20;39.50
34572;DHT22;20808;48.974;8.452;2023-01-05T01:28:54;11.20;31.80
34572;DHT22;20808;48.974;8.452;2023-01-05T01:29:10;11.20;30.90
34572;DHT22;20808;48.974;8.452;2023-01-05T01:29:26;11.20;35.20
34572;DHT22;20808;48.974;8.452;2023-01-05T01:29:44;11.10;39.30
34572;DHT22;20808;48.974;8.452;2023-01-05T01:29:59;11.20;31.60
34572;DHT22;20808;48.974;8.452;2023-01-05T01:30:15;11.20;25.00
34572;DHT22;20808;48.974;8.452;2023-01-05T01:30:31;11.10;28.90
34572;DHT22;20808;48.974;8.452;2023-01-05T01:30:47;11.20;30.20
34572;DHT22;20808;48.974;8.452;2023-01-05T01:31:04;11.20;23.10
34572;DHT22;20808;48.974;8.452;2023-01-05T01:31:20;11.20;23.10
34572;DHT22;20808;48.974;8.452;2023-01-05T01:31:36;11.20;4.40
34572;DHT22;20808;48.974;8.452;2023-01-05T01:31:53;11.20;3.50
34572;DHT22;20808;48.974;8.452;2023-01-05T01:32:08;11.20;6.10
34572;DHT22;20808;48.974;8.452;2023-01-05T01:32:25;11.20;10.10
34572;DHT22;20808;48.974;8.452;2023-01-05T01:32:41;11.20;15.50
34572;DHT22;20808;48.974;8.452;2023-01-05T01:32:57;11.20;19.30
34572;DHT22;20808;48.974;8.452;2023-01-05T01:33:12;11.20;19.10
34572;DHT22;20808;48.974;8.452;2023-01-05T01:33:28;11.20;18.10
34572;DHT22;20808;48.974;8.452;2023-01-05T01:33:44;11.20;10.50
34572;DHT22;20808;48.974;8.452;2023-01-05T01:34:01;11.20;19.80
34572;DHT22;20808;48.974;8.452;2023-01-05T01:34:17;11.20;23.90
34572;DHT22;20808;48.974;8.452;2023-01-05T01:34:32;11.20;15.60
34572;DHT22;20808;48.974;8.452;2023-01-05T01:34:48;11.20;17.30
34572;DHT22;20808;48.974;8.452;2023-01-05T01:35:05;11.20;18.70
34572;DHT22;20808;48.974;8.452;2023-01-05T01:35:23;11.20;12.80
34572;DHT22;20808;48.974;8.452;2023-01-05T01:35:38;11.20;4.80
34572;DHT22;20808;48.974;8.452;2023-01-05T01:35:55;11.20;2.10
34572;DHT22;20808;48.974;8.452;2023-01-05T01:36:11;11.20;1.00
34572;DHT22;20808;48.974;8.452;2023-01-05T01:36:26;11.20;1.00
34572;DHT22;20808;48.974;8.452;2023-01-05T01:36:44;11.20;1.00
34572;DHT22;20808;48.974;8.452;2023-01-05T01:36:59;11.30;1.00
34572;DHT22;20808;48.974;8.452;2023-01-05T01:37:15;11.30;1.00
34572;DHT22;20808;48.974;8.452;2023-01-05T01:37:31;11.30;1.00
34572;DHT22;20808;48.974;8.452;2023-01-05T01:37:48;11.30;1.00
34572;DHT22;20808;48.974;8.452;2023-01-05T01:38:04;11.30;1.00
34572;DHT22;20808;48.974;8.452;2023-01-05T01:38:20;11.30;1.00
34572;DHT22;20808;48.974;8.452;2023-01-05T01:38:36;11.30;1.00
34572;DHT22;20808;48.974;8.452;2023-01-05T01:38:52;11.30;1.00
34572;DHT22;20808;48.974;8.452;2023-01-05T01:39:11;11.30;1.00
34572;DHT22;20808;48.974;8.452;2023-01-05T01:39:27;11.30;1.00
34572;DHT22;20808;48.974;8.452;2023-01-05T01:39:43;11.30;1.00
34572;DHT22;20808;48.974;8.452;2023-01-05T01:39:59;11.30;1.00
34572;DHT22;20808;48.974;8.452;2023-01-05T01:40:14;11.30;1.00
34572;DHT22;20808;48.974;8.452;2023-01-05T01:40:37;11.30;1.00
34572;DHT22;20808;48.974;8.452;2023-01-05T01:40:53;11.30;1.00
34572;DHT22;20808;48.974;8.452;2023-01-05T01:41:10;11.30;1.00
34572;DHT22;20808;48.974;8.452;2023-01-05T01:41:27;11.30;1.00
34572;DHT22;20808;48.974;8.452;2023-01-05T01:41:42;11.40;1.00
34572;DHT22;20808;48.974;8.452;2023-01-05T01:41:59;11.30;1.00
34572;DHT22;20808;48.974;8.452;2023-01-05T01:42:16;11.40;1.00
34572;DHT22;20808;48.974;8.452;2023-01-05T01:42:32;11.40;1.00
34572;DHT22;20808;48.974;8.452;2023-01-05T01:42:48;11.40;1.00
34572;DHT22;20808;48.974;8.452;2023-01-05T01:43:09;11.40;1.00
34572;DHT22;20808;48.974;8.452;2023-01-05T01:43:42;11.40;1.00
34572;DHT22;20808;48.974;8.452;2023-01-05T01:43:59;11.50;1.00
34572;DHT22;20808;48.974;8.452;2023-01-05T01:44:55;11.40;1.00
34572;DHT22;20808;48.974;8.452;2023-01-05T01:45:17;11.50;1.00
34572;DHT22;20808;48.974;8.452;2023-01-05T01:45:33;11.50;1.00
34572;DHT22;20808;48.974;8.452;2023-01-05T01:45:49;11.50;1.00
34572;DHT22;20808;48.974;8.452;2023-01-05T01:46:05;11.50;1.00
34572;DHT22;20808;48.974;8.452;2023-01-05T01:46:22;11.50;1.00
34572;DHT22;20808;48.974;8.452;2023-01-05T01:46:39;11.50;1.00
34572;DHT22;20808;48.974;8.452;2023-01-05T01:46:55;11.50;1.00
34572;DHT22;20808;48.974;8.452;2023-01-05T01:47:14;11.50;1.00
34572;DHT22;20808;48.974;8.452;2023-01-05T01:47:35;11.50;1.00
34572;DHT22;20808;48.974;8.452;2023-01-05T01:47:56;11.50;1.00
34572;DHT22;20808;48.974;8.452;2023-01-05T01:48:15;11.50;1.00
34572;DHT22;20808;48.974;8.452;2023-01-05T01:48:34;11.50;1.00
34572;DHT22;20808;48.974;8.452;2023-01-05T01:48:54;11.50;1.00
34572;DHT22;20808;48.974;8.452;2023-01-05T01:49:11;11.50;1.00
34572;DHT22;20808;48.974;8.452;2023-01-05T01:49:26;11.60;1.00
34572;DHT22;20808;48.974;8.452;2023-01-05T01:49:43;11.60;1.00
34572;DHT22;20808;48.974;8.452;2023-01-05T01:50:02;11.60;1.00
34572;DHT22;20808;48.974;8.452;2023-01-05T01:50:22;11.60;1.00
34572;DHT22;20808;48.974;8.452;2023-01-05T01:50:42;11.60;1.00
34572;DHT22;20808;48.974;8.452;2023-01-05T01:51:03;11.60;1.00
34572;DHT22;20808;48.974;8.452;2023-01-05T01:51:23;11.60;1.00
34572;DHT22;20808;48.974;8.452;2023-01-05T01:51:43;11.70;99.90
34572;DHT22;20808;48.974;8.452;2023-01-05T01:52:01;11.60;99.90
34572;DHT22;20808;48.974;8.452;2023-01-05T01:52:18;11.70;99.90
34572;DHT22;20808;48.974;8.452;2023-01-05T01:52:36;11.70;99.90
34572;DHT22;20808;48.974;8.452;2023-01-05T01:52:56;11.70;99.90
34572;DHT22;20808;48.974;8.452;2023-01-05T01:53:17;11.70;99.90
34572;DHT22;20808;48.974;8.452;2023-01-05T01:53:36;11.70;1.00